createdAt,value
2018-08-13T00:00:53.339Z,95285.00
2018-08-13T00:03:19.933Z,95275.90
2018-08-13T00:05:46.308Z,95271.45
2018-08-13T00:08:12.678Z,95274.25
2018-08-13T00:10:39.003Z,95273.78
2018-08-13T00:13:05.317Z,95273.09
2018-08-13T00:15:31.667Z,95276.77
2018-08-13T00:17:58.034Z,95274.30
2018-08-13T00:20:24.374Z,95272.78
2018-08-13T00:22:50.699Z,95273.88
2018-08-13T00:25:17.021Z,95280.92
2018-08-13T00:27:43.424Z,95288.72
2018-08-13T00:30:09.801Z,95290.06
2018-08-13T00:32:36.149Z,95295.58
2018-08-13T00:35:02.511Z,95284.67
2018-08-13T00:37:29.094Z,95290.69
2018-08-13T00:39:55.498Z,95290.52
2018-08-13T00:42:21.920Z,95290.69
2018-08-13T00:44:48.340Z,95290.56
2018-08-13T00:47:14.680Z,95287.29
2018-08-13T00:49:41.017Z,95286.00
2018-08-13T00:52:07.358Z,95294.47
2018-08-13T00:54:33.688Z,95293.72
2018-08-13T00:57:00.160Z,95292.02
2018-08-13T00:59:26.492Z,95285.17
2018-08-13T01:01:52.871Z,95285.22
2018-08-13T01:04:19.239Z,95285.68
2018-08-13T01:06:45.643Z,95278.72
2018-08-13T01:09:12.079Z,95278.50
2018-08-13T01:11:38.455Z,95278.64
2018-08-13T01:14:04.868Z,95277.11
2018-08-13T01:16:31.378Z,95273.92
2018-08-13T01:18:57.755Z,95270.05
2018-08-13T01:21:24.140Z,95266.41
2018-08-13T01:23:50.472Z,95274.42
2018-08-13T01:26:16.869Z,95272.40
2018-08-13T01:28:43.263Z,95272.35
2018-08-13T01:31:09.694Z,95268.03
2018-08-13T01:33:36.027Z,95265.00
2018-08-13T01:36:02.694Z,95268.54
2018-08-13T01:38:29.024Z,95257.33
2018-08-13T01:40:55.423Z,95263.85
2018-08-13T01:43:21.751Z,95261.94
2018-08-13T01:45:48.078Z,95260.86
2018-08-13T01:48:14.514Z,95261.14
2018-08-13T01:50:40.899Z,95264.62
2018-08-13T01:53:07.364Z,95260.31
2018-08-13T01:55:33.723Z,95267.20
2018-08-13T01:58:00.051Z,95263.34
2018-08-13T02:00:26.409Z,95258.61
2018-08-13T02:02:52.885Z,95263.63
2018-08-13T02:05:19.255Z,95253.47
2018-08-13T02:07:45.593Z,95251.64
2018-08-13T02:10:11.906Z,95256.08
2018-08-13T02:12:38.342Z,95253.34
2018-08-13T02:15:04.878Z,95250.52
2018-08-13T02:17:31.314Z,95249.19
2018-08-13T02:19:57.703Z,95252.17
2018-08-13T02:22:24.045Z,95247.13
2018-08-13T02:24:50.432Z,95245.72
2018-08-13T02:27:16.767Z,95257.42
2018-08-13T02:29:43.142Z,95253.64
2018-08-13T02:32:09.543Z,95253.56
2018-08-13T02:34:35.931Z,95253.47
2018-08-13T02:37:02.273Z,95256.50
2018-08-13T02:39:28.660Z,95250.48
2018-08-13T02:41:55.055Z,95260.98
2018-08-13T02:44:21.583Z,95266.97
2018-08-13T02:46:47.960Z,95268.66
2018-08-13T02:49:14.388Z,95272.16
2018-08-13T02:51:40.901Z,95266.19
2018-08-13T02:54:07.347Z,95269.75
2018-08-13T02:56:33.698Z,95265.41
2018-08-13T02:59:00.069Z,95265.02
2018-08-13T03:01:26.459Z,95264.75
2018-08-13T03:03:52.822Z,95270.55
2018-08-13T03:06:19.203Z,95271.64
2018-08-13T03:08:45.571Z,95275.77
2018-08-13T03:11:11.942Z,95265.20
2018-08-13T03:13:38.335Z,95264.66
2018-08-13T03:16:04.750Z,95271.64
2018-08-13T03:18:31.135Z,95271.96
2018-08-13T03:20:57.511Z,95274.58
2018-08-13T03:23:23.844Z,95275.63
2018-08-13T03:25:50.307Z,95272.39
2018-08-13T03:28:16.704Z,95277.54
2018-08-13T03:30:43.144Z,95277.20
2018-08-13T03:33:09.484Z,95278.64
2018-08-13T03:35:35.871Z,95276.84
2018-08-13T03:38:02.310Z,95279.48
2018-08-13T03:40:28.705Z,95280.22
2018-08-13T03:42:55.108Z,95278.72
2018-08-13T03:45:21.475Z,95276.26
2018-08-13T03:47:47.798Z,95283.67
2018-08-13T03:50:14.262Z,95282.51
2018-08-13T03:52:40.628Z,95281.24
2018-08-13T03:55:06.995Z,95287.36
2018-08-13T03:57:33.352Z,95286.05
2018-08-13T03:59:59.733Z,95286.61
2018-08-13T04:02:26.310Z,95278.63
2018-08-13T04:04:52.832Z,95282.95
2018-08-13T04:07:19.257Z,95278.13
2018-08-13T04:09:45.587Z,95277.58
2018-08-13T04:12:12.025Z,95273.70
2018-08-13T04:14:38.483Z,95271.75
2018-08-13T04:17:04.816Z,95274.66
2018-08-13T04:19:31.199Z,95276.82
2018-08-13T04:21:57.521Z,95270.78
2018-08-13T04:24:23.881Z,95273.37
2018-08-13T04:26:50.380Z,95274.27
2018-08-13T04:29:16.776Z,95267.13
2018-08-13T04:31:43.178Z,95271.40
2018-08-13T04:34:09.539Z,95270.88
2018-08-13T04:36:35.897Z,95276.17
2018-08-13T04:39:02.265Z,95272.34
2018-08-13T04:41:28.599Z,95269.00
2018-08-13T04:43:54.986Z,95269.66
2018-08-13T04:46:21.329Z,95266.14
2018-08-13T04:48:47.705Z,95261.84
2018-08-13T04:51:14.086Z,95268.89
2018-08-13T04:53:40.435Z,95267.55
2018-08-13T04:56:07.053Z,95267.30
2018-08-13T04:58:33.431Z,95274.29
2018-08-13T05:00:59.785Z,95275.63
2018-08-13T05:03:26.192Z,95274.34
2018-08-13T05:05:52.521Z,95265.43
2018-08-13T05:08:18.846Z,95271.00
2018-08-13T05:10:45.255Z,95284.20
2018-08-13T05:13:11.723Z,95280.84
2018-08-13T05:15:38.079Z,95279.03
2018-08-13T05:18:04.488Z,95276.52
2018-08-13T05:20:30.838Z,95281.17
2018-08-13T05:22:57.216Z,95279.23
2018-08-13T05:25:23.581Z,95279.35
2018-08-13T05:27:49.991Z,95279.58
2018-08-13T05:30:16.495Z,95282.98
2018-08-13T05:32:42.932Z,95283.16
2018-08-13T05:35:09.301Z,95275.92
2018-08-13T05:37:35.811Z,95283.14
2018-08-13T05:40:02.188Z,95282.61
2018-08-13T05:42:28.714Z,95286.19
2018-08-13T05:44:55.133Z,95283.70
2018-08-13T05:47:21.570Z,95281.80
2018-08-13T05:49:47.928Z,95282.02
2018-08-13T05:52:14.299Z,95276.25
2018-08-13T05:54:40.792Z,95276.13
2018-08-13T05:57:07.406Z,95270.69
2018-08-13T05:59:33.855Z,95269.48
2018-08-13T06:02:00.207Z,95272.53
2018-08-13T06:04:26.627Z,95272.95
2018-08-13T06:06:53.038Z,95269.66
2018-08-13T06:09:19.376Z,95268.61
2018-08-13T06:11:45.855Z,95267.84
2018-08-13T06:14:12.146Z,95267.49
2018-08-13T06:16:38.483Z,95269.30
2018-08-13T06:19:04.835Z,95264.33
2018-08-13T06:21:31.285Z,95260.86
2018-08-13T06:23:57.692Z,95261.61
2018-08-13T06:26:24.101Z,95257.65
2018-08-13T06:28:50.497Z,95255.81
2018-08-13T06:31:16.887Z,95255.12
2018-08-13T06:33:43.332Z,95253.94
2018-08-13T06:36:09.959Z,95254.70
2018-08-13T06:38:36.360Z,95255.44
2018-08-13T06:41:02.910Z,95260.28
2018-08-13T06:43:30.023Z,95257.17
2018-08-13T06:45:56.468Z,95251.56
2018-08-13T06:48:22.862Z,95248.52
2018-08-13T06:50:49.238Z,95244.80
2018-08-13T06:53:15.600Z,95256.75
2018-08-13T06:55:41.995Z,95251.19
2018-08-13T06:58:08.366Z,95250.25
2018-08-13T07:00:34.880Z,95251.98
2018-08-13T07:03:01.283Z,95247.63
2018-08-13T07:05:27.614Z,95244.02
2018-08-13T07:07:53.990Z,95246.33
2018-08-13T07:10:20.407Z,95248.03
2018-08-13T07:12:46.830Z,95245.05
2018-08-13T07:15:13.255Z,95241.94
2018-08-13T07:17:39.650Z,95245.87
2018-08-13T07:20:06.036Z,95241.53
2018-08-13T07:22:32.499Z,95244.95
2018-08-13T07:24:58.817Z,95246.45
2018-08-13T07:27:26.305Z,95246.02
2018-08-13T07:29:52.736Z,95240.44
2018-08-13T07:32:19.202Z,95243.54
2018-08-13T07:34:45.611Z,95240.44
2018-08-13T07:37:12.085Z,95240.22
2018-08-13T07:39:38.449Z,95238.77
2018-08-13T07:42:04.911Z,95240.80
2018-08-13T07:44:31.375Z,95235.43
2018-08-13T07:46:57.941Z,95231.44
2018-08-13T07:49:24.539Z,95232.47
2018-08-13T07:51:51.074Z,95231.34
2018-08-13T07:54:17.366Z,95231.34
2018-08-13T07:56:44.005Z,95229.83
2018-08-13T07:59:10.518Z,95230.14
2018-08-13T08:01:37.140Z,95238.90
2018-08-13T08:04:03.492Z,95236.56
2018-08-13T08:06:29.909Z,95233.16
2018-08-13T08:08:56.308Z,95235.16
2018-08-13T08:11:23.587Z,95234.45
2018-08-13T08:13:49.953Z,95235.39
2018-08-13T08:16:16.425Z,95229.23
2018-08-13T08:18:43.010Z,95226.85
2018-08-13T08:21:09.392Z,95227.30
2018-08-13T08:23:35.873Z,95220.83
2018-08-13T08:26:02.220Z,95222.48
2018-08-13T08:28:28.618Z,95218.45
2018-08-13T08:30:55.087Z,95216.99
2018-08-13T08:33:21.461Z,95214.83
2018-08-13T08:35:47.858Z,95217.06
2018-08-13T08:38:14.325Z,95212.59
2018-08-13T08:40:40.799Z,95206.44
2018-08-13T08:43:07.087Z,95211.32
2018-08-13T08:45:33.421Z,95198.05
2018-08-13T08:47:59.946Z,95196.19
2018-08-13T08:50:26.318Z,95187.08
2018-08-13T08:52:52.697Z,95184.77
2018-08-13T08:55:19.100Z,95185.83
2018-08-13T08:57:45.505Z,95180.70
2018-08-13T09:00:11.866Z,95176.94
2018-08-13T09:02:38.274Z,95179.84
2018-08-13T09:05:04.689Z,95174.11
2018-08-13T09:07:31.081Z,95177.48
2018-08-13T09:09:57.440Z,95171.83
2018-08-13T09:12:24.115Z,95167.69
2018-08-13T09:14:50.446Z,95170.07
2018-08-13T09:17:16.836Z,95170.89
2018-08-13T09:19:43.198Z,95171.63
2018-08-13T09:22:09.703Z,95163.16
2018-08-13T09:24:36.077Z,95170.84
2018-08-13T09:27:02.522Z,95168.47
2018-08-13T09:29:28.929Z,95167.59
2018-08-13T09:31:55.376Z,95167.27
2018-08-13T09:34:21.769Z,95158.55
2018-08-13T09:36:48.320Z,95161.91
2018-08-13T09:39:14.581Z,95156.98
2018-08-13T09:41:41.014Z,95162.57
2018-08-13T09:44:07.480Z,95154.67
2018-08-13T09:46:33.906Z,95158.76
2018-08-13T09:49:00.411Z,95159.47
2018-08-13T09:51:26.946Z,95155.91
2018-08-13T09:53:53.491Z,95145.11
2018-08-13T09:56:20.019Z,95144.80
2018-08-13T09:58:46.457Z,95137.55
2018-08-13T10:01:12.896Z,95132.08
2018-08-13T10:03:39.325Z,95136.78
2018-08-13T10:06:05.734Z,95127.98
2018-08-13T10:08:32.091Z,95125.24
2018-08-13T10:10:58.565Z,95119.62
2018-08-13T10:13:24.817Z,95118.37
2018-08-13T10:15:51.151Z,95122.61
2018-08-13T10:18:17.497Z,95120.75
2018-08-13T10:20:43.916Z,95121.63
2018-08-13T10:23:10.289Z,95121.16
2018-08-13T10:25:36.723Z,95123.95
2018-08-13T10:28:03.056Z,95115.89
2018-08-13T10:30:29.488Z,95116.83
2018-08-13T10:32:55.890Z,95119.04
2018-08-13T10:35:22.300Z,95115.52
2018-08-13T10:37:48.737Z,95113.09
2018-08-13T10:40:15.086Z,95117.45
2018-08-13T10:42:41.539Z,95112.39
2018-08-13T10:45:07.908Z,95113.20
2018-08-13T10:47:35.114Z,95109.62
2018-08-13T10:50:01.596Z,95105.33
2018-08-13T10:52:28.071Z,95104.36
2018-08-13T10:54:54.607Z,95100.90
2018-08-13T10:57:21.064Z,95097.63
2018-08-13T10:59:47.600Z,95092.91
2018-08-13T11:02:13.982Z,95087.73
2018-08-13T11:04:40.383Z,95085.12
2018-08-13T11:07:06.807Z,95085.00
2018-08-13T11:09:33.250Z,95080.45
2018-08-13T11:11:59.611Z,95081.06
2018-08-13T11:14:25.994Z,95074.19
2018-08-13T11:16:52.429Z,95075.39
2018-08-13T11:19:18.834Z,95066.72
2018-08-13T11:21:45.274Z,95078.86
2018-08-13T11:24:11.653Z,95076.80
2018-08-13T11:26:38.284Z,95067.16
2018-08-13T11:29:04.692Z,95069.60
2018-08-13T11:31:31.047Z,95065.08
2018-08-13T11:33:57.451Z,95070.57
2018-08-13T11:36:23.831Z,95060.26
2018-08-13T11:38:50.211Z,95057.82
2018-08-13T11:41:16.585Z,95057.97
2018-08-13T11:43:42.937Z,95055.70
2018-08-13T11:46:09.408Z,95050.95
2018-08-13T11:48:35.763Z,95051.53
2018-08-13T11:51:02.196Z,95052.50
2018-08-13T11:53:28.539Z,95046.27
2018-08-13T11:55:55.043Z,95043.19
2018-08-13T11:58:21.455Z,95045.39
2018-08-13T12:00:47.848Z,95039.37
2018-08-13T12:03:14.266Z,95037.02
2018-08-13T12:05:40.668Z,95035.90
2018-08-13T12:08:07.049Z,95035.20
2018-08-13T12:10:34.643Z,95033.46
2018-08-13T12:13:01.629Z,95032.61
2018-08-13T12:15:28.069Z,95037.89
2018-08-13T12:17:54.474Z,95033.23
2018-08-13T12:20:20.888Z,95029.67
2018-08-13T12:22:47.288Z,95030.46
2018-08-13T12:25:13.954Z,95026.96
2018-08-13T12:27:40.350Z,95026.81
2018-08-13T12:30:06.841Z,95025.73
2018-08-13T12:32:33.413Z,95028.11
2018-08-13T12:35:00.015Z,95021.56
2018-08-13T12:37:26.390Z,95015.63
2018-08-13T12:39:52.849Z,95023.53
2018-08-13T12:42:19.332Z,95019.47
2018-08-13T12:44:45.758Z,95022.12
2018-08-13T12:47:12.157Z,95013.10
2018-08-13T12:49:38.615Z,95011.98
2018-08-13T12:52:05.016Z,95006.25
2018-08-13T12:54:31.538Z,95004.81
2018-08-13T12:56:58.019Z,95010.52
2018-08-13T12:59:24.533Z,95006.19
2018-08-13T13:01:50.887Z,94997.69
2018-08-13T13:04:17.319Z,94994.08
2018-08-13T13:06:43.855Z,94993.79
2018-08-13T13:09:10.319Z,94991.14
2018-08-13T13:11:36.838Z,94987.76
2018-08-13T13:14:03.217Z,94993.67
2018-08-13T13:16:29.660Z,94978.91
2018-08-13T13:18:56.114Z,94984.22
2018-08-13T13:21:22.524Z,94976.94
2018-08-13T13:23:48.958Z,94981.55
2018-08-13T13:26:15.313Z,94982.59
2018-08-13T13:28:41.695Z,94981.28
2018-08-13T13:31:08.071Z,94978.23
2018-08-13T13:33:34.483Z,94980.07
2018-08-13T13:36:00.940Z,94981.08
2018-08-13T13:38:27.288Z,94976.11
2018-08-13T13:40:53.700Z,94973.86
2018-08-13T13:43:20.125Z,94975.50
2018-08-13T13:45:46.550Z,94974.28
2018-08-13T13:48:12.891Z,94971.37
2018-08-13T13:50:39.233Z,94971.84
2018-08-13T13:53:05.624Z,94968.75
2018-08-13T13:55:32.023Z,94969.17
2018-08-13T13:57:58.457Z,94961.16
2018-08-13T14:00:24.819Z,94963.92
2018-08-13T14:02:51.271Z,94964.28
2018-08-13T14:05:17.607Z,94956.25
2018-08-13T14:07:43.968Z,94951.81
2018-08-13T14:10:10.391Z,94946.56
2018-08-13T14:12:36.766Z,94944.33
2018-08-13T14:15:03.111Z,94942.70
2018-08-13T14:17:29.560Z,94945.77
2018-08-13T14:19:56.041Z,94947.12
2018-08-13T14:22:22.497Z,94939.78
2018-08-13T14:24:48.910Z,94942.49
2018-08-13T14:27:15.258Z,94940.18
2018-08-13T14:29:41.762Z,94933.11
2018-08-13T14:32:08.196Z,94934.00
2018-08-13T14:34:34.606Z,94930.67
2018-08-13T14:37:00.958Z,94930.38
2018-08-13T14:39:27.358Z,94931.40
2018-08-13T14:41:53.762Z,94931.28
2018-08-13T14:44:20.288Z,94931.73
2018-08-13T14:46:46.712Z,94930.11
2018-08-13T14:49:13.123Z,94927.98
2018-08-13T14:51:40.494Z,94934.19
2018-08-13T14:54:06.965Z,94932.07
2018-08-13T14:56:33.415Z,94931.28
2018-08-13T14:58:59.778Z,94927.31
2018-08-13T15:01:26.227Z,94928.19
2018-08-13T15:03:52.863Z,94920.94
2018-08-13T15:06:19.490Z,94918.34
2018-08-13T15:08:46.016Z,94922.81
2018-08-13T15:11:12.500Z,94920.03
2018-08-13T15:13:38.934Z,94919.02
2018-08-13T15:16:05.297Z,94918.88
2018-08-13T15:18:31.673Z,94918.33
2018-08-13T15:20:58.295Z,94914.39
2018-08-13T15:23:24.661Z,94912.90
2018-08-13T15:25:51.056Z,94909.43
2018-08-13T15:28:17.489Z,94912.50
2018-08-13T15:30:44.371Z,94908.20
2018-08-13T15:33:10.948Z,94911.97
2018-08-13T15:35:37.322Z,94914.04
2018-08-13T15:38:03.711Z,94907.21
2018-08-13T15:40:30.084Z,94907.54
2018-08-13T15:42:56.433Z,94907.54
2018-08-13T15:45:22.807Z,94909.11
2018-08-13T15:47:49.288Z,94902.31
2018-08-13T15:50:15.668Z,94899.66
2018-08-13T15:52:42.065Z,94902.30
2018-08-13T15:55:08.461Z,94905.31
2018-08-13T15:57:34.895Z,94900.59
2018-08-13T16:00:01.294Z,94890.88
2018-08-13T16:02:27.633Z,94892.17
2018-08-13T16:04:53.965Z,94893.61
2018-08-13T16:07:20.414Z,94897.89
2018-08-13T16:09:46.951Z,94895.91
2018-08-13T16:12:13.406Z,94892.83
2018-08-13T16:14:39.742Z,94889.91
2018-08-13T16:17:06.090Z,94886.02
2018-08-13T16:19:32.481Z,94884.60
2018-08-13T16:21:58.846Z,94887.37
2018-08-13T16:24:25.219Z,94886.36
2018-08-13T16:26:51.624Z,94888.89
2018-08-13T16:29:18.010Z,94892.62
2018-08-13T16:31:44.342Z,94889.50
2018-08-13T16:34:10.685Z,94892.55
2018-08-13T16:36:37.062Z,94894.17
2018-08-13T16:39:03.451Z,94890.42
2018-08-13T16:41:29.848Z,94894.63
2018-08-13T16:43:56.240Z,94892.73
2018-08-13T16:46:22.734Z,94890.64
2018-08-13T16:48:49.079Z,94895.25
2018-08-13T16:51:15.575Z,94900.66
2018-08-13T16:53:41.954Z,94899.92
2018-08-13T16:56:08.350Z,94896.05
2018-08-13T16:58:34.704Z,94899.52
2018-08-13T17:01:01.039Z,94889.86
2018-08-13T17:03:27.431Z,94887.73
2018-08-13T17:05:53.801Z,94884.27
2018-08-13T17:08:20.219Z,94890.12
2018-08-13T17:10:46.603Z,94890.24
2018-08-13T17:13:13.021Z,94888.77
2018-08-13T17:15:39.496Z,94893.26
2018-08-13T17:18:05.823Z,94900.72
2018-08-13T17:20:32.147Z,94897.14
2018-08-13T17:22:58.481Z,94900.25
2018-08-13T17:25:24.857Z,94903.89
2018-08-13T17:27:51.266Z,94906.50
2018-08-13T17:30:17.606Z,94902.89
2018-08-13T17:32:43.963Z,94905.56
2018-08-13T17:35:10.307Z,94907.85
2018-08-13T17:37:36.655Z,94909.55
2018-08-13T17:40:03.066Z,94912.52
2018-08-13T17:42:29.419Z,94917.92
2018-08-13T17:44:55.761Z,94924.19
2018-08-13T17:47:22.093Z,94920.98
2018-08-13T17:49:48.433Z,94927.97
2018-08-13T17:52:14.812Z,94933.84
2018-08-13T17:54:41.142Z,94928.70
2018-08-13T17:57:08.347Z,94930.30
2018-08-13T17:59:34.774Z,94923.73
2018-08-13T18:02:01.100Z,94927.93
2018-08-13T18:04:27.436Z,94936.61
2018-08-13T18:06:53.767Z,94932.73
2018-08-13T18:09:20.127Z,94935.67
2018-08-13T18:11:46.465Z,94934.02
2018-08-13T18:14:12.946Z,94941.91
2018-08-13T18:16:39.321Z,94951.62
2018-08-13T18:19:05.658Z,94956.27
2018-08-13T18:21:32.012Z,94956.95
2018-08-13T18:23:58.382Z,94956.99
2018-08-13T18:26:24.821Z,94962.09
2018-08-13T18:28:51.252Z,94963.17
2018-08-13T18:31:17.590Z,94964.01
2018-08-13T18:33:43.982Z,94960.85
2018-08-13T18:36:10.384Z,94957.46
2018-08-13T18:38:36.748Z,94965.05
2018-08-13T18:41:03.078Z,94963.28
2018-08-13T18:43:29.420Z,94966.24
2018-08-13T18:45:55.784Z,94969.23
2018-08-13T18:48:22.137Z,94970.16
2018-08-13T18:50:48.455Z,94971.38
2018-08-13T18:53:14.916Z,94975.11
2018-08-13T18:55:41.261Z,94972.73
2018-08-13T18:58:07.596Z,94972.56
2018-08-13T19:00:33.928Z,94970.24
2018-08-13T19:03:00.324Z,94971.89
2018-08-13T19:05:26.731Z,94969.47
2018-08-13T19:07:53.127Z,94963.11
2018-08-13T19:10:19.450Z,94966.62
2018-08-13T19:12:45.786Z,94964.78
2018-08-13T19:15:12.188Z,94964.06
2018-08-13T19:17:38.620Z,94962.59
2018-08-13T19:20:04.963Z,94961.73
2018-08-13T19:22:31.363Z,94966.05
2018-08-13T19:24:57.728Z,94967.34
2018-08-13T19:27:24.100Z,94970.38
2018-08-13T19:29:50.493Z,94968.11
2018-08-13T19:32:16.927Z,94969.15
2018-08-13T19:34:43.284Z,94966.16
2018-08-13T19:37:09.628Z,94968.00
2018-08-13T19:39:35.988Z,94968.98
2018-08-13T19:42:02.393Z,94972.45
2018-08-13T19:44:28.825Z,94973.00
2018-08-13T19:46:55.181Z,94974.15
2018-08-13T19:49:21.552Z,94975.69
2018-08-13T19:51:47.903Z,94978.55
2018-08-13T19:54:14.235Z,94975.72
2018-08-13T19:56:40.673Z,94974.89
2018-08-13T19:59:07.032Z,94983.97
2018-08-13T20:01:33.348Z,94987.92
2018-08-13T20:03:59.721Z,94987.73
2018-08-13T20:06:26.180Z,94985.59
2018-08-13T20:08:52.574Z,94984.14
2018-08-13T20:11:18.982Z,94985.44
2018-08-13T20:13:45.366Z,94990.50
2018-08-13T20:16:11.749Z,94990.59
2018-08-13T20:18:38.132Z,94992.67
2018-08-13T20:21:04.557Z,94992.04
2018-08-13T20:23:30.881Z,94994.20
2018-08-13T20:25:57.215Z,94986.75
2018-08-13T20:28:23.574Z,94993.33
2018-08-13T20:30:50.236Z,94996.53
2018-08-13T20:33:16.591Z,94997.91
2018-08-13T20:35:42.953Z,95002.02
2018-08-13T20:38:09.353Z,95000.13
2018-08-13T20:40:35.680Z,95005.29
2018-08-13T20:43:02.094Z,95005.72
2018-08-13T20:45:28.452Z,95002.27
2018-08-13T20:47:55.197Z,95004.95
2018-08-13T20:50:21.564Z,95004.69
2018-08-13T20:52:47.911Z,95003.72
2018-08-13T20:55:14.309Z,95007.29
2018-08-13T20:57:40.665Z,95010.00
2018-08-13T21:00:06.991Z,95009.28
2018-08-13T21:02:33.364Z,95012.00
2018-08-13T21:04:59.841Z,95001.85
2018-08-13T21:07:26.182Z,95004.43
2018-08-13T21:09:52.534Z,95000.65
2018-08-13T21:12:18.869Z,95013.17
2018-08-13T21:14:45.201Z,95006.92
2018-08-13T21:17:11.537Z,95008.48
2018-08-13T21:19:37.926Z,95013.06
2018-08-13T21:22:04.305Z,95015.86
2018-08-13T21:24:30.687Z,95020.05
2018-08-13T21:26:57.028Z,95020.62
2018-08-13T21:29:23.365Z,95024.91
2018-08-13T21:31:49.697Z,95025.92
2018-08-13T21:34:16.090Z,95027.31
2018-08-13T21:36:42.458Z,95022.98
2018-08-13T21:39:08.840Z,95021.52
2018-08-13T21:41:35.183Z,95018.92
2018-08-13T21:44:01.527Z,95020.92
2018-08-13T21:46:27.858Z,95020.18
2018-08-13T21:48:54.183Z,95015.78
2018-08-13T21:51:20.536Z,95019.00
2018-08-13T21:53:46.859Z,95021.52
2018-08-13T21:56:13.512Z,95022.33
2018-08-13T21:58:39.954Z,95023.41
2018-08-13T22:01:06.300Z,95022.27
2018-08-13T22:03:32.635Z,95029.40
2018-08-13T22:05:59.137Z,95024.50
2018-08-13T22:08:25.635Z,95023.83
2018-08-13T22:10:52.034Z,95029.64
2018-08-13T22:13:18.447Z,95031.39
2018-08-13T22:15:44.759Z,95028.44
2018-08-13T22:18:11.092Z,95031.29
2018-08-13T22:20:37.489Z,95028.20
2018-08-13T22:23:03.843Z,95038.33
2018-08-13T22:25:30.178Z,95032.58
2018-08-13T22:27:56.554Z,95031.34
2018-08-13T22:30:22.890Z,95036.51
2018-08-13T22:32:49.283Z,95042.08
2018-08-13T22:35:15.676Z,95037.84
2018-08-13T22:37:42.169Z,95038.08
2018-08-13T22:40:08.528Z,95027.48
2018-08-13T22:42:34.940Z,95023.81
2018-08-13T22:45:01.392Z,95029.70
2018-08-13T22:47:27.848Z,95033.95
2018-08-13T22:49:54.199Z,95029.07
2018-08-13T22:52:20.758Z,95027.97
2018-08-13T22:54:47.116Z,95027.97
2018-08-13T22:57:13.512Z,95027.42
2018-08-13T22:59:39.899Z,95026.80
2018-08-13T23:02:06.231Z,95026.78
2018-08-13T23:04:32.635Z,95016.89
2018-08-13T23:06:59.010Z,95024.67
2018-08-13T23:09:25.443Z,95016.02
2018-08-13T23:11:51.768Z,95025.17
2018-08-13T23:14:18.234Z,95029.03
2018-08-13T23:16:44.667Z,95025.52
2018-08-13T23:19:11.012Z,95017.20
2018-08-13T23:21:37.344Z,95014.20
2018-08-13T23:24:03.771Z,95021.18
2018-08-13T23:26:30.175Z,95020.82
2018-08-13T23:28:56.503Z,95023.57
2018-08-13T23:31:22.851Z,95025.61
2018-08-13T23:33:49.290Z,95025.78
2018-08-13T23:36:15.648Z,95020.65
2018-08-13T23:38:42.053Z,95021.47
2018-08-13T23:41:08.385Z,95027.72
2018-08-13T23:43:34.785Z,95018.19
2018-08-13T23:46:01.223Z,95017.33
2018-08-13T23:48:27.573Z,95013.57
2018-08-13T23:50:53.912Z,95013.28
2018-08-13T23:53:20.308Z,95016.97
2018-08-13T23:55:46.737Z,95016.05
2018-08-13T23:58:13.153Z,95014.91
